Time;durP1;ratioP1;P1;durP2;ratioP2;P2;SDS_P1;SDS_P2;PMS_P1;PMS_P2;Temp;Humidity;BMP_temperature;BMP_pressure;BME280_temperature;BME280_humidity;BME280_pressure;Samples;Min_cycle;Max_cycle;Signal;HPM_P1;HPM_P2
2022/08/03 00:00:05;;;;;;;6.35;2.22;;;23.30;69.60;;;;;;5022647;28;20022;-64
2022/08/03 00:02:38;;;;;;;7.45;2.28;;;23.20;69.70;;;;;;5020379;28;20378;-64
2022/08/03 00:05:04;;;;;;;6.35;2.63;;;23.20;69.70;;;;;;5023301;28;20026;-65
2022/08/03 00:07:29;;;;;;;7.25;2.38;;;23.20;69.80;;;;;;5018040;28;20022;-64
2022/08/03 00:09:55;;;;;;;7.80;2.45;;;23.20;69.90;;;;;;5020566;28;20034;-64
2022/08/03 00:12:20;;;;;;;12.70;2.28;;;23.10;69.90;;;;;;5026669;28;20471;-64
2022/08/03 00:14:46;;;;;;;8.40;2.28;;;23.10;69.90;;;;;;5014169;28;20053;-64
2022/08/03 00:17:12;;;;;;;7.22;2.45;;;23.10;70.00;;;;;;5014700;28;20026;-64
2022/08/03 00:19:37;;;;;;;7.35;1.88;;;23.10;70.00;;;;;;5014205;28;20036;-64
2022/08/03 00:22:03;;;;;;;6.05;2.03;;;23.10;70.00;;;;;;5016735;28;20021;-65
2022/08/03 00:24:30;;;;;;;6.43;2.10;;;23.10;70.10;;;;;;5020695;28;20061;-64
2022/08/03 00:26:55;;;;;;;5.65;1.80;;;23.10;70.20;;;;;;5020795;28;20033;-64
2022/08/03 00:29:21;;;;;;;7.38;2.28;;;23.00;70.20;;;;;;5001905;28;20033;-64
2022/08/03 00:31:47;;;;;;;8.60;2.70;;;23.00;70.30;;;;;;5024063;28;20121;-64
2022/08/03 00:34:13;;;;;;;5.40;1.88;;;23.00;70.30;;;;;;5013301;28;20368;-64
2022/08/03 00:36:39;;;;;;;7.22;2.05;;;23.00;70.40;;;;;;5022162;28;20100;-64
2022/08/03 00:39:04;;;;;;;5.47;1.83;;;23.00;70.40;;;;;;5014238;28;20034;-64
2022/08/03 00:41:30;;;;;;;7.93;2.40;;;23.00;70.50;;;;;;5029182;28;20030;-64
2022/08/03 00:43:55;;;;;;;5.65;2.17;;;22.90;70.50;;;;;;5015574;28;20057;-64
2022/08/03 00:46:21;;;;;;;10.32;2.20;;;22.90;70.60;;;;;;5010035;28;20034;-64
2022/08/03 00:48:48;;;;;;;6.80;1.90;;;22.90;70.60;;;;;;5019385;28;20025;-64
2022/08/03 00:51:14;;;;;;;5.93;1.98;;;22.90;70.70;;;;;;5026909;28;20033;-64
2022/08/03 00:53:40;;;;;;;4.97;2.25;;;22.90;70.70;;;;;;5009536;28;20029;-64
2022/08/03 00:56:05;;;;;;;6.25;2.50;;;22.80;70.80;;;;;;5022644;28;20079;-64
2022/08/03 00:58:31;;;;;;;8.00;2.50;;;22.80;70.80;;;;;;5013789;28;20030;-64
2022/08/03 01:00:57;;;;;;;7.72;2.40;;;22.80;70.90;;;;;;5029501;28;20077;-64
2022/08/03 01:03:23;;;;;;;8.60;2.20;;;22.80;71.00;;;;;;5016628;28;20037;-64
2022/08/03 01:05:59;;;;;;;7.90;2.55;;;22.80;71.10;;;;;;5033697;28;20029;-64
2022/08/03 01:08:42;;;;;;;7.43;2.53;;;22.70;71.20;;;;;;5006668;28;20030;-64
2022/08/03 01:11:17;;;;;;;7.57;2.00;;;22.80;71.30;;;;;;5032513;28;20506;-64
2022/08/03 01:13:58;;;;;;;8.27;2.10;;;22.70;71.30;;;;;;5019854;28;20026;-64
2022/08/03 01:16:30;;;;;;;8.65;2.25;;;22.70;71.30;;;;;;5007658;28;20072;-64
2022/08/03 01:19:28;;;;;;;8.85;2.47;;;22.70;71.40;;;;;;5007120;28;20105;-64
2022/08/03 01:22:06;;;;;;;10.43;2.40;;;22.70;71.50;;;;;;5009994;28;20447;-64
2022/08/03 01:24:41;;;;;;;6.55;2.08;;;22.60;71.50;;;;;;5010181;28;20057;-64
2022/08/03 01:27:42;;;;;;;7.18;1.95;;;22.60;71.60;;;;;;5010074;28;20101;-64
2022/08/03 01:30:11;;;;;;;7.03;2.28;;;22.60;71.60;;;;;;5011984;28;20049;-64
2022/08/03 01:32:53;;;;;;;6.45;2.30;;;22.60;71.70;;;;;;5020613;28;20034;-64
2022/08/03 01:35:43;;;;;;;9.48;2.55;;;22.60;71.90;;;;;;5021161;28;20492;-64
2022/08/03 01:38:19;;;;;;;8.73;2.13;;;22.50;71.90;;;;;;5017760;28;20067;-64
2022/08/03 01:40:46;;;;;;;5.97;2.15;;;22.50;71.90;;;;;;5016163;28;20030;-64
2022/08/03 01:43:16;;;;;;;5.35;1.95;;;22.50;72.00;;;;;;5015283;28;20032;-64
2022/08/03 01:45:43;;;;;;;5.97;1.95;;;22.50;72.00;;;;;;5010138;28;20017;-64
2022/08/03 01:48:11;;;;;;;4.80;1.80;;;22.50;72.00;;;;;;5022712;28;20038;-64
2022/08/03 01:50:37;;;;;;;7.22;2.22;;;22.50;72.10;;;;;;5025017;28;20175;-64
2022/08/03 01:53:04;;;;;;;7.40;2.25;;;22.50;72.10;;;;;;5010841;28;20513;-64
2022/08/03 01:55:32;;;;;;;6.18;2.30;;;22.50;72.30;;;;;;5030830;28;20114;-64
2022/08/03 01:58:01;;;;;;;7.68;2.30;;;22.40;72.20;;;;;;5029483;28;20128;-64
2022/08/03 02:00:27;;;;;;;8.02;2.33;;;22.40;72.30;;;;;;5036986;28;20358;-64
2022/08/03 02:02:54;;;;;;;12.18;2.58;;;22.40;72.40;;;;;;5024321;28;20023;-64
2022/08/03 02:05:20;;;;;;;8.10;2.38;;;22.40;72.40;;;;;;5021049;28;20109;-65
2022/08/03 02:07:47;;;;;;;10.25;2.92;;;22.40;72.50;;;;;;5023164;28;20032;-63
2022/08/03 02:10:15;;;;;;;7.00;2.53;;;22.40;72.50;;;;;;5031853;28;20099;-64
2022/08/03 02:12:44;;;;;;;7.72;2.35;;;22.30;72.50;;;;;;5029305;28;20038;-64
2022/08/03 02:15:11;;;;;;;7.40;2.40;;;22.30;72.60;;;;;;5029684;28;20068;-64
2022/08/03 02:17:38;;;;;;;7.07;2.22;;;22.30;72.60;;;;;;5022814;28;20032;-64
2022/08/03 02:20:05;;;;;;;5.70;2.47;;;22.30;72.70;;;;;;5019542;28;20036;-64
2022/08/03 02:22:32;;;;;;;4.95;2.20;;;22.30;72.80;;;;;;5024947;28;20065;-64
2022/08/03 02:24:58;;;;;;;7.00;2.58;;;22.30;72.80;;;;;;5029710;28;20027;-64
2022/08/03 02:27:28;;;;;;;7.45;2.08;;;22.30;72.90;;;;;;5030064;28;20030;-64
2022/08/03 02:29:59;;;;;;;7.18;2.72;;;22.30;72.90;;;;;;5026290;28;20056;-64
2022/08/03 02:32:29;;;;;;;;;;;22.20;73.00;;;;;;5028403;28;20033;-65
2022/08/03 02:34:56;;;;;;;8.18;2.42;;;22.20;72.90;;;;;;5023438;28;19961;-64
2022/08/03 02:37:27;;;;;;;8.00;1.92;;;22.20;73.00;;;;;;5029977;28;20033;-64
2022/08/03 02:40:00;;;;;;;6.45;2.42;;;22.20;73.10;;;;;;5028762;28;20109;-64
2022/08/03 02:42:27;;;;;;;9.40;2.90;;;22.20;73.20;;;;;;5026334;28;20022;-64
2022/08/03 02:44:56;;;;;;;7.45;2.50;;;22.10;73.20;;;;;;5008371;28;20359;-64
2022/08/03 02:47:24;;;;;;;10.13;2.47;;;22.10;73.30;;;;;;5022258;28;20351;-64
2022/08/03 02:49:50;;;;;;;4.72;2.25;;;22.10;73.40;;;;;;5018517;28;20113;-64
2022/08/03 02:52:17;;;;;;;7.72;2.70;;;22.10;73.50;;;;;;5013313;28;20436;-64
2022/08/03 02:54:45;;;;;;;8.40;2.65;;;22.10;73.60;;;;;;5021289;28;20065;-64
2022/08/03 02:57:11;;;;;;;6.68;2.28;;;22.10;73.60;;;;;;5022704;28;20037;-64
2022/08/03 02:59:40;;;;;;;7.78;2.33;;;22.00;73.60;;;;;;5022170;28;20108;-64
2022/08/03 03:02:06;;;;;;;6.70;2.33;;;22.00;73.70;;;;;;5017178;28;20337;-64
2022/08/03 03:04:32;;;;;;;9.05;2.40;;;22.00;73.70;;;;;;5015460;28;20030;-64
2022/08/03 03:06:59;;;;;;;6.80;2.28;;;22.00;73.80;;;;;;5011128;28;20486;-64
2022/08/03 03:09:25;;;;;;;9.10;3.03;;;22.00;73.80;;;;;;5018578;28;20030;-64
2022/08/03 03:11:52;;;;;;;7.50;2.58;;;22.00;73.90;;;;;;5027466;28;20068;-64
2022/08/03 03:14:18;;;;;;;7.65;2.95;;;21.90;73.90;;;;;;5011210;28;20030;-64
2022/08/03 03:16:45;;;;;;;6.05;2.42;;;21.90;74.00;;;;;;5006065;28;20021;-64
2022/08/03 03:19:14;;;;;;;6.25;2.70;;;21.90;74.00;;;;;;5018467;28;20458;-64
2022/08/03 03:21:42;;;;;;;9.05;3.00;;;21.90;74.10;;;;;;5030938;28;20076;-63
2022/08/03 03:24:08;;;;;;;8.02;2.85;;;21.90;74.20;;;;;;5018985;28;20033;-64
2022/08/03 03:26:35;;;;;;;7.68;2.78;;;21.90;74.30;;;;;;5004544;28;20470;-64
2022/08/03 03:29:01;;;;;;;8.70;2.65;;;21.80;74.30;;;;;;5019782;28;20058;-64
2022/08/03 03:31:27;;;;;;;6.72;2.72;;;21.80;74.30;;;;;;5022829;28;20092;-64
2022/08/03 03:33:56;;;;;;;5.60;2.55;;;21.80;74.40;;;;;;5006442;28;20033;-64
2022/08/03 03:36:22;;;;;;;8.23;3.38;;;21.80;74.50;;;;;;5019711;28;20025;-64
2022/08/03 03:38:47;;;;;;;7.82;2.97;;;21.80;74.50;;;;;;5021855;28;20434;-64
2022/08/03 03:41:13;;;;;;;7.18;2.30;;;21.80;74.50;;;;;;5020037;28;20029;-63
2022/08/03 03:43:39;;;;;;;9.02;2.80;;;21.80;74.60;;;;;;5026105;28;20030;-64
2022/08/03 03:46:05;;;;;;;7.72;2.80;;;21.70;74.60;;;;;;5008523;28;20109;-64
2022/08/03 03:48:31;;;;;;;8.60;2.65;;;21.70;74.70;;;;;;5008099;28;20029;-64
2022/08/03 03:50:58;;;;;;;8.63;2.95;;;21.70;74.80;;;;;;5007408;28;20018;-64
2022/08/03 03:53:24;;;;;;;8.18;2.85;;;21.70;74.80;;;;;;5009294;28;20434;-64
2022/08/03 03:55:51;;;;;;;9.35;2.70;;;21.70;74.90;;;;;;5010768;28;20061;-64
2022/08/03 03:58:17;;;;;;;6.95;2.50;;;21.70;75.00;;;;;;5008009;28;20042;-64
2022/08/03 04:00:44;;;;;;;9.07;2.78;;;21.70;75.00;;;;;;5017910;28;20104;-64
2022/08/03 04:03:11;;;;;;;8.30;2.92;;;21.70;75.10;;;;;;5016415;28;20068;-64
2022/08/03 04:11:12;;;;;;;9.32;2.90;;;21.70;75.20;;;;;;5015969;28;20515;-64
2022/08/03 04:13:42;;;;;;;8.32;3.05;;;21.60;75.30;;;;;;5011351;28;20035;-64
2022/08/03 04:16:11;;;;;;;9.88;3.95;;;21.60;75.30;;;;;;5015967;28;20483;-64
2022/08/03 04:18:39;;;;;;;8.38;3.45;;;21.60;75.30;;;;;;5031759;28;20029;-64
2022/08/03 04:21:09;;;;;;;9.60;3.83;;;21.60;75.40;;;;;;5029968;28;20030;-64
2022/08/03 04:23:39;;;;;;;7.88;3.63;;;21.60;75.50;;;;;;5034368;28;20022;-64
2022/08/03 04:26:08;;;;;;;9.82;4.30;;;21.60;75.50;;;;;;5021466;28;20085;-63
2022/08/03 04:28:36;;;;;;;9.40;3.65;;;21.60;75.50;;;;;;5013556;28;20028;-64
2022/08/03 04:31:03;;;;;;;9.65;3.85;;;21.70;75.60;;;;;;5006270;28;20079;-64
2022/08/03 04:33:31;;;;;;;9.98;3.67;;;21.70;75.60;;;;;;5017808;28;20149;-64
2022/08/03 04:35:59;;;;;;;9.73;4.18;;;21.70;75.70;;;;;;5013217;28;20176;-65
2022/08/03 04:38:25;;;;;;;9.95;4.13;;;21.70;75.70;;;;;;5021210;28;20867;-64
2022/08/03 04:40:52;;;;;;;9.38;4.28;;;21.70;75.70;;;;;;5011306;28;20352;-64
2022/08/03 04:43:19;;;;;;;9.55;4.15;;;21.70;75.70;;;;;;5022574;28;20040;-64
2022/08/03 04:45:48;;;;;;;9.10;4.18;;;21.70;75.70;;;;;;5030890;28;20073;-64
2022/08/03 04:48:14;;;;;;;9.65;4.07;;;21.80;75.70;;;;;;5017132;28;20061;-64
2022/08/03 04:50:41;;;;;;;8.45;3.97;;;21.80;75.60;;;;;;5011586;28;20039;-64
2022/08/03 04:53:07;;;;;;;10.95;3.80;;;21.80;75.60;;;;;;5023825;28;20048;-64
2022/08/03 04:55:33;;;;;;;10.07;3.95;;;21.80;75.50;;;;;;5033310;28;20367;-64
2022/08/03 04:58:00;;;;;;;8.55;3.65;;;21.90;75.60;;;;;;5010892;28;20099;-64
2022/08/03 05:00:26;;;;;;;10.10;3.47;;;21.90;75.60;;;;;;5015067;28;20429;-64
2022/08/03 05:02:55;;;;;;;9.38;3.67;;;21.90;75.50;;;;;;5030701;28;20026;-64
2022/08/03 05:05:21;;;;;;;9.35;3.80;;;22.00;75.60;;;;;;5021765;28;20025;-64
2022/08/03 05:07:47;;;;;;;7.97;3.80;;;22.00;75.50;;;;;;5015948;28;20088;-64
2022/08/03 05:10:13;;;;;;;10.13;4.10;;;22.00;75.40;;;;;;5021884;28;20026;-64
2022/08/03 05:12:39;;;;;;;11.38;3.70;;;22.00;75.40;;;;;;5027464;28;20060;-64
2022/08/03 05:15:06;;;;;;;10.10;3.55;;;22.00;75.30;;;;;;5028112;28;20041;-64
2022/08/03 05:17:35;;;;;;;8.88;4.07;;;22.10;75.30;;;;;;5017416;28;20037;-64
2022/08/03 05:20:02;;;;;;;8.90;4.18;;;22.10;75.20;;;;;;5021467;28;20099;-64
2022/08/03 05:22:28;;;;;;;9.25;4.05;;;22.10;75.20;;;;;;5022079;28;20030;-64
2022/08/03 05:24:54;;;;;;;8.93;3.97;;;22.10;75.20;;;;;;5036838;28;20091;-64
2022/08/03 05:27:19;;;;;;;11.13;4.03;;;22.20;75.10;;;;;;5023969;28;20041;-64
2022/08/03 05:29:46;;;;;;;9.30;4.03;;;22.20;75.00;;;;;;5015843;28;20052;-64
2022/08/03 05:32:12;;;;;;;13.02;4.47;;;22.20;74.90;;;;;;5012918;28;20041;-64
2022/08/03 05:34:37;;;;;;;10.38;4.00;;;22.30;74.90;;;;;;5021739;28;20355;-64
2022/08/03 05:37:03;;;;;;;9.82;4.15;;;22.30;74.80;;;;;;5012828;28;20034;-64
2022/08/03 05:39:29;;;;;;;9.45;3.92;;;22.40;74.60;;;;;;5023606;28;20022;-63
2022/08/03 05:41:54;;;;;;;9.77;3.53;;;22.40;74.40;;;;;;5023172;28;20021;-64
2022/08/03 05:44:20;;;;;;;7.18;3.67;;;22.50;74.10;;;;;;5028575;28;20370;-64
2022/08/03 05:46:46;;;;;;;9.15;4.13;;;22.60;73.90;;;;;;5009417;28;20108;-64
2022/08/03 05:49:12;;;;;;;11.73;4.20;;;22.60;73.60;;;;;;5012752;28;20112;-64
2022/08/03 05:51:37;;;;;;;9.88;3.83;;;22.70;73.30;;;;;;5021020;28;20503;-64
2022/08/03 05:54:03;;;;;;;7.90;3.67;;;22.80;73.10;;;;;;5024946;28;20041;-64
2022/08/03 05:56:29;;;;;;;10.68;3.40;;;22.80;72.90;;;;;;5031059;28;20034;-64
2022/08/03 05:58:54;;;;;;;9.50;3.92;;;22.90;72.70;;;;;;5029529;28;20104;-64
2022/08/03 06:01:21;;;;;;;7.85;3.40;;;23.00;72.50;;;;;;5036995;28;20029;-64
2022/08/03 06:03:48;;;;;;;7.93;3.80;;;23.00;72.20;;;;;;5005707;28;20021;-64
2022/08/03 06:06:13;;;;;;;9.00;3.38;;;23.10;72.00;;;;;;5017280;28;20034;-64
2022/08/03 06:08:40;;;;;;;11.25;4.38;;;23.10;71.80;;;;;;5024932;28;20032;-64
2022/08/03 06:11:06;;;;;;;10.27;3.72;;;23.20;71.60;;;;;;5034344;28;20057;-64
2022/08/03 06:13:31;;;;;;;11.98;3.53;;;23.40;71.40;;;;;;5031092;28;20026;-64
2022/08/03 06:15:57;;;;;;;7.53;3.45;;;23.50;71.10;;;;;;5029220;28;20029;-64
2022/08/03 06:18:23;;;;;;;8.70;3.33;;;23.50;70.80;;;;;;5028359;28;20032;-64
2022/08/03 06:20:49;;;;;;;7.78;3.38;;;23.60;70.70;;;;;;5013645;28;20359;-64
2022/08/03 06:23:16;;;;;;;10.50;3.08;;;23.70;70.50;;;;;;5016302;28;20351;-65
2022/08/03 06:25:42;;;;;;;10.82;3.75;;;23.60;70.10;;;;;;5017178;28;20079;-64
2022/08/03 06:28:07;;;;;;;8.95;3.70;;;23.60;70.00;;;;;;5014499;28;20113;-64
2022/08/03 06:30:33;;;;;;;8.43;3.15;;;23.70;69.90;;;;;;5017168;28;20112;-64
2022/08/03 06:32:59;;;;;;;9.82;3.28;;;23.70;69.80;;;;;;5015805;28;20042;-64
2022/08/03 06:35:26;;;;;;;7.25;2.92;;;23.80;69.60;;;;;;5024587;28;20083;-64
2022/08/03 06:37:52;;;;;;;6.72;3.10;;;24.00;69.40;;;;;;5024608;28;20048;-64
2022/08/03 06:40:27;;;;;;;7.60;3.00;;;24.20;68.90;;;;;;5020363;28;20018;-64
2022/08/03 06:42:54;;;;;;;9.90;3.10;;;24.40;68.50;;;;;;5036728;28;20036;-64
2022/08/03 06:45:19;;;;;;;11.52;3.08;;;24.60;67.80;;;;;;5036597;28;20100;-64
2022/08/03 06:47:45;;;;;;;9.57;3.30;;;24.70;67.20;;;;;;5036920;28;20104;-64
2022/08/03 06:50:11;;;;;;;11.10;3.45;;;24.90;66.80;;;;;;5036323;28;20029;-64
2022/08/03 06:52:36;;;;;;;9.95;2.80;;;25.00;66.40;;;;;;5036230;28;20026;-64
2022/08/03 06:55:03;;;;;;;10.00;2.90;;;25.10;66.20;;;;;;5028489;28;20029;-64
2022/08/03 06:57:28;;;;;;;8.88;2.90;;;25.10;65.90;;;;;;5035384;28;20078;-64
2022/08/03 07:00:00;;;;;;;7.78;2.42;;;25.20;65.70;;;;;;5035429;28;20022;-64
2022/08/03 07:02:26;;;;;;;8.88;3.10;;;25.30;65.30;;;;;;5036693;28;20021;-64
2022/08/03 07:04:52;;;;;;;10.57;2.97;;;25.50;64.60;;;;;;5036396;28;20045;-64
2022/08/03 07:07:19;;;;;;;10.77;2.95;;;25.70;64.10;;;;;;5036039;28;20185;-64
2022/08/03 07:09:45;;;;;;;11.10;3.10;;;25.90;63.70;;;;;;5023605;28;20082;-64
2022/08/03 07:12:10;;;;;;;9.90;2.95;;;25.90;63.30;;;;;;5035870;28;20057;-64
2022/08/03 07:14:36;;;;;;;11.60;2.50;;;26.00;63.00;;;;;;5035920;28;20316;-64
2022/08/03 07:17:02;;;;;;;13.75;3.25;;;26.00;62.90;;;;;;5019298;28;20041;-64
2022/08/03 07:19:27;;;;;;;10.68;3.15;;;26.10;62.80;;;;;;5035856;28;20021;-64
2022/08/03 07:21:53;;;;;;;7.30;2.60;;;26.20;62.40;;;;;;5036052;28;20469;-64
2022/08/03 07:24:19;;;;;;;11.15;2.95;;;26.30;62.00;;;;;;5022792;28;20034;-64
2022/08/03 07:26:44;;;;;;;9.82;2.78;;;26.40;61.60;;;;;;5034595;28;20430;-64
2022/08/03 07:29:10;;;;;;;8.50;2.60;;;26.50;61.30;;;;;;5026835;28;20033;-64
2022/08/03 07:31:35;;;;;;;10.18;3.00;;;26.60;61.00;;;;;;5029414;28;20022;-64
2022/08/03 07:34:01;;;;;;;9.70;2.85;;;26.70;60.50;;;;;;5028449;28;20029;-64
2022/08/03 07:36:27;;;;;;;8.95;2.53;;;26.90;60.20;;;;;;5035243;28;20112;-64
2022/08/03 07:38:52;;;;;;;6.22;2.35;;;26.90;59.90;;;;;;5026717;28;20022;-64
2022/08/03 07:41:18;;;;;;;8.38;2.40;;;27.00;59.90;;;;;;5031509;28;20132;-64
2022/08/03 07:43:43;;;;;;;12.80;2.30;;;27.20;59.70;;;;;;5035321;28;20032;-64
2022/08/03 07:46:09;;;;;;;7.80;2.20;;;27.40;59.30;;;;;;5029330;28;20018;-64
2022/08/03 07:48:35;;;;;;;12.65;2.85;;;27.40;59.60;;;;;;5032732;28;20465;-64
2022/08/03 07:51:02;;;;;;;9.60;2.80;;;27.50;58.80;;;;;;5035626;28;20028;-64
2022/08/03 07:53:27;;;;;;;10.23;2.70;;;27.60;58.50;;;;;;5017934;28;20029;-65
2022/08/03 07:55:53;;;;;;;15.07;2.63;;;27.70;58.30;;;;;;5016135;28;20461;-64
2022/08/03 07:58:19;;;;;;;9.30;2.72;;;27.70;58.10;;;;;;5005602;28;20054;-64
2022/08/03 08:00:44;;;;;;;7.55;2.13;;;27.60;58.10;;;;;;5009625;28;20084;-64
2022/08/03 08:03:11;;;;;;;8.32;2.10;;;27.80;58.10;;;;;;5013083;28;20087;-64
2022/08/03 08:05:37;;;;;;;10.73;2.20;;;27.90;57.80;;;;;;5019514;28;20032;-64
2022/08/03 08:08:03;;;;;;;13.32;2.45;;;28.10;57.40;;;;;;5027655;28;20343;-64
2022/08/03 08:10:29;;;;;;;8.07;2.03;;;28.20;57.10;;;;;;5034391;28;20045;-64
2022/08/03 08:12:55;;;;;;;6.57;2.00;;;28.20;56.90;;;;;;5034557;28;20033;-64
2022/08/03 08:15:21;;;;;;;9.55;2.40;;;28.20;56.70;;;;;;5013727;28;20042;-65
2022/08/03 08:17:50;;;;;;;9.75;2.25;;;28.40;56.70;;;;;;5018726;28;20128;-64
2022/08/03 08:20:24;;;;;;;8.25;2.05;;;28.50;56.40;;;;;;5004055;28;20101;-64
2022/08/03 08:22:50;;;;;;;7.20;2.00;;;28.60;56.20;;;;;;5001290;28;20076;-64
2022/08/03 08:25:16;;;;;;;12.80;2.90;;;28.60;56.10;;;;;;5003859;28;20022;-64
2022/08/03 08:27:47;;;;;;;9.00;2.05;;;28.70;56.00;;;;;;5005059;28;20058;-64
2022/08/03 08:30:13;;;;;;;;;;;28.80;55.50;;;;;;4998810;28;20030;-64
2022/08/03 08:32:40;;;;;;;9.70;2.55;;;28.90;55.60;;;;;;5007163;28;20253;-64
2022/08/03 08:35:06;;;;;;;12.40;2.63;;;29.00;55.10;;;;;;5009164;28;20032;-64
2022/08/03 08:37:33;;;;;;;10.02;2.50;;;29.20;54.90;;;;;;5005461;28;20022;-65
2022/08/03 08:39:58;;;;;;;7.38;2.15;;;29.30;54.50;;;;;;5005363;28;20045;-66
2022/08/03 08:42:24;;;;;;;9.55;2.55;;;29.40;54.30;;;;;;5003300;28;20425;-66
2022/08/03 08:44:50;;;;;;;9.77;2.30;;;29.50;54.00;;;;;;5003038;28;20023;-66
2022/08/03 08:47:18;;;;;;;8.73;2.42;;;29.60;53.70;;;;;;5001221;28;20331;-65
2022/08/03 08:49:47;;;;;;;13.68;2.78;;;29.70;53.60;;;;;;5002442;28;20030;-65
2022/08/03 08:52:13;;;;;;;9.10;2.35;;;29.80;53.40;;;;;;5009716;28;20030;-65
2022/08/03 08:54:43;;;;;;;8.70;2.30;;;29.80;52.90;;;;;;5002190;28;20161;-65
2022/08/03 08:57:10;;;;;;;8.73;2.28;;;29.90;52.60;;;;;;5011749;28;20077;-65
2022/08/03 08:59:36;;;;;;;9.80;2.38;;;30.00;52.60;;;;;;5014323;28;20436;-66
2022/08/03 09:02:02;;;;;;;12.70;2.83;;;30.10;52.50;;;;;;5005953;28;20130;-65
2022/08/03 09:04:28;;;;;;;12.38;2.22;;;30.10;52.10;;;;;;5010215;28;20435;-65
2022/08/03 09:06:54;;;;;;;11.02;2.55;;;30.20;51.90;;;;;;5005093;28;20029;-64
2022/08/03 09:09:20;;;;;;;9.23;2.75;;;30.30;51.60;;;;;;5005663;28;20026;-65
2022/08/03 09:11:48;;;;;;;12.73;2.75;;;30.30;51.40;;;;;;5013106;28;20069;-65
2022/08/03 09:14:13;;;;;;;13.75;3.33;;;30.40;51.30;;;;;;5023750;28;20033;-65
2022/08/03 09:16:59;;;;;;;9.27;2.65;;;30.50;51.30;;;;;;5026868;28;20025;-64
2022/08/03 09:19:25;;;;;;;13.43;2.38;;;30.60;50.90;;;;;;5032791;28;20037;-64
2022/08/03 09:22:14;;;;;;;10.18;2.63;;;30.80;50.80;;;;;;5026908;28;20050;-65
2022/08/03 09:24:58;;;;;;;10.73;2.45;;;30.90;50.40;;;;;;5037813;28;20029;-64
2022/08/03 09:27:24;;;;;;;10.18;2.22;;;30.90;50.10;;;;;;5030749;28;20379;-65
2022/08/03 09:29:51;;;;;;;10.40;2.45;;;31.00;50.20;;;;;;5032751;28;20037;-65
2022/08/03 09:32:21;;;;;;;13.55;2.78;;;31.10;50.00;;;;;;5024844;28;20025;-64
2022/08/03 09:34:49;;;;;;;10.27;1.83;;;31.20;49.50;;;;;;5030877;28;20140;-64
2022/08/03 09:37:16;;;;;;;9.82;2.60;;;31.20;49.30;;;;;;5020158;28;20296;-65
2022/08/03 09:39:44;;;;;;;8.98;2.38;;;31.30;49.00;;;;;;5033295;28;20041;-65
2022/08/03 09:42:16;;;;;;;10.45;2.55;;;31.40;48.80;;;;;;5017815;28;20459;-65
2022/08/03 09:44:48;;;;;;;11.45;2.58;;;31.50;49.40;;;;;;5030586;28;20045;-65
2022/08/03 09:47:26;;;;;;;11.55;2.08;;;31.50;48.60;;;;;;5029801;28;20057;-65
2022/08/03 09:50:02;;;;;;;9.63;2.75;;;31.50;48.60;;;;;;5028611;28;20101;-65
2022/08/03 09:52:33;;;;;;;11.75;2.72;;;31.50;48.40;;;;;;5030912;28;20033;-65
2022/08/03 09:55:01;;;;;;;8.60;2.50;;;31.50;48.20;;;;;;5029542;28;20040;-65
2022/08/03 09:57:29;;;;;;;8.15;2.10;;;31.50;48.20;;;;;;5013198;28;20367;-65
2022/08/03 10:00:09;;;;;;;13.55;2.88;;;31.40;48.20;;;;;;5005440;28;20105;-65
2022/08/03 10:02:40;;;;;;;11.27;2.30;;;31.50;48.20;;;;;;5006535;28;20036;-65
2022/08/03 10:05:08;;;;;;;9.13;2.50;;;31.50;48.20;;;;;;5026491;28;20034;-65
2022/08/03 10:07:48;;;;;;;9.90;2.20;;;31.60;48.10;;;;;;5019076;28;20486;-65
2022/08/03 10:10:16;;;;;;;11.60;2.75;;;31.60;47.90;;;;;;5024592;28;20477;-65
2022/08/03 10:12:43;;;;;;;14.75;2.53;;;31.70;48.00;;;;;;5029998;28;20104;-65
2022/08/03 10:15:09;;;;;;;10.20;2.50;;;31.80;48.00;;;;;;5017746;28;20034;-65
2022/08/03 10:17:36;;;;;;;11.95;2.67;;;31.90;47.70;;;;;;5015649;28;20057;-64
2022/08/03 10:20:05;;;;;;;13.88;2.90;;;31.90;47.40;;;;;;5008529;28;20088;-65
2022/08/03 10:22:34;;;;;;;9.35;2.22;;;32.10;47.10;;;;;;5011946;28;20068;-65
2022/08/03 10:25:08;;;;;;;11.45;2.28;;;32.10;47.00;;;;;;5009894;28;20062;-64
2022/08/03 10:27:46;;;;;;;9.55;2.38;;;32.20;47.00;;;;;;5014746;28;20038;-64
2022/08/03 10:30:13;;;;;;;10.32;2.78;;;32.10;46.90;;;;;;5014644;28;20034;-65
2022/08/03 10:33:22;;;;;;;12.88;2.95;;;32.20;46.90;;;;;;4997101;28;20425;-64
2022/08/03 10:35:53;;;;;;;16.05;3.00;;;32.10;46.70;;;;;;4993019;28;20435;-65
2022/08/03 10:38:24;;;;;;;8.07;2.13;;;32.20;46.70;;;;;;4990228;28;20049;-65
2022/08/03 10:40:53;;;;;;;10.00;2.80;;;32.30;46.50;;;;;;5000901;28;20073;-65
2022/08/03 10:43:32;;;;;;;11.50;2.35;;;32.40;46.30;;;;;;4994662;28;20076;-64
2022/08/03 10:46:00;;;;;;;9.75;2.40;;;32.40;46.00;;;;;;4993973;28;20446;-65
2022/08/03 10:48:26;;;;;;;7.03;2.17;;;32.40;46.00;;;;;;4984527;28;20072;-65
2022/08/03 10:50:52;;;;;;;10.48;2.42;;;32.50;46.60;;;;;;4956801;28;20140;-65
2022/08/03 10:53:37;;;;;;;11.82;2.42;;;32.60;45.60;;;;;;4993016;28;20054;-65
2022/08/03 10:58:49;;;;;;;10.10;2.75;;;32.70;45.30;;;;;;5000586;28;20041;-65
2022/08/03 11:01:16;;;;;;;8.65;2.25;;;32.70;45.30;;;;;;4989721;28;20451;-65
2022/08/03 11:03:54;;;;;;;11.18;2.38;;;32.80;45.20;;;;;;5007086;28;20415;-65
2022/08/03 11:06:23;;;;;;;10.82;1.98;;;32.80;44.70;;;;;;5015194;28;20447;-65
2022/08/03 11:09:09;;;;;;;10.38;2.17;;;32.80;44.50;;;;;;5017104;28;20026;-65
2022/08/03 11:11:40;;;;;;;10.48;2.35;;;32.90;44.30;;;;;;5033531;28;20041;-65
2022/08/03 11:14:12;;;;;;;8.95;2.10;;;32.90;44.20;;;;;;5018754;28;20113;-65
2022/08/03 11:17:01;;;;;;;10.63;2.30;;;32.90;44.00;;;;;;5016305;28;20036;-65
2022/08/03 11:19:46;;;;;;;11.30;2.33;;;33.00;44.00;;;;;;5000176;28;20022;-65
2022/08/03 11:22:14;;;;;;;11.02;2.08;;;33.00;43.90;;;;;;5009290;28;20050;-65
2022/08/03 11:24:40;;;;;;;10.45;2.40;;;33.10;43.80;;;;;;5004903;28;20032;-65
2022/08/03 11:27:14;;;;;;;9.38;2.08;;;33.10;43.70;;;;;;5003057;28;20034;-66
2022/08/03 11:30:02;;;;;;;11.55;2.38;;;33.00;43.40;;;;;;5006371;28;20092;-65
2022/08/03 11:32:36;;;;;;;13.32;2.72;;;33.10;43.50;;;;;;5009392;28;20129;-65
2022/08/03 11:35:18;;;;;;;10.13;2.90;;;33.10;43.30;;;;;;5008038;28;20367;-65
2022/08/03 11:37:53;;;;;;;11.15;2.10;;;33.10;43.30;;;;;;5007459;28;20455;-65
2022/08/03 11:40:40;;;;;;;8.73;2.35;;;33.20;43.10;;;;;;5005631;28;20042;-64
2022/08/03 11:43:26;;;;;;;10.13;2.53;;;33.10;42.80;;;;;;5005851;28;20034;-64
2022/08/03 11:46:00;;;;;;;13.85;2.70;;;33.10;42.80;;;;;;5004113;28;20030;-63
2022/08/03 11:48:32;;;;;;;10.48;2.42;;;33.10;42.50;;;;;;5001838;28;20032;-64
2022/08/03 11:51:02;;;;;;;9.63;2.30;;;33.00;42.70;;;;;;5005750;28;20041;-63
2022/08/03 11:53:29;;;;;;;10.90;2.03;;;33.10;42.70;;;;;;5005924;28;20042;-64
2022/08/03 11:55:59;;;;;;;9.30;2.22;;;33.00;42.90;;;;;;4978683;28;20030;-64
2022/08/03 11:58:25;;;;;;;9.63;2.03;;;33.00;43.00;;;;;;5004889;28;20046;-63
2022/08/03 12:00:51;;;;;;;7.53;1.95;;;33.00;43.00;;;;;;5001284;28;20394;-63
2022/08/03 12:03:19;;;;;;;8.30;2.30;;;33.00;42.90;;;;;;5007520;28;20032;-63
2022/08/03 12:05:47;;;;;;;7.72;2.08;;;33.00;42.70;;;;;;5001428;28;20030;-63
2022/08/03 12:08:15;;;;;;;8.00;2.15;;;32.90;42.30;;;;;;5008535;28;20029;-60
2022/08/03 12:10:47;;;;;;;8.43;2.45;;;32.80;42.20;;;;;;5014246;28;20045;-60
2022/08/03 12:13:13;;;;;;;9.20;2.05;;;32.70;42.10;;;;;;5026635;28;20025;-60
2022/08/03 12:15:39;;;;;;;8.15;1.83;;;32.60;42.10;;;;;;5006914;28;20048;-61
2022/08/03 12:18:17;;;;;;;7.82;1.95;;;32.60;42.00;;;;;;5034237;28;20037;-60
2022/08/03 12:20:44;;;;;;;7.78;1.98;;;32.50;42.00;;;;;;5007254;28;20026;-61
2022/08/03 12:23:11;;;;;;;6.93;2.47;;;32.50;42.00;;;;;;5004832;28;20029;-60
2022/08/03 12:25:39;;;;;;;9.32;1.98;;;32.40;41.90;;;;;;5013766;28;20079;-61
2022/08/03 12:28:22;;;;;;;11.88;2.10;;;32.40;42.00;;;;;;5014110;28;20030;-60
2022/08/03 12:30:51;;;;;;;11.32;2.58;;;32.30;42.10;;;;;;5017043;28;20091;-60
2022/08/03 12:33:22;;;;;;;10.27;2.53;;;32.10;42.00;;;;;;5021745;28;20044;-61
2022/08/03 12:36:01;;;;;;;6.40;2.00;;;32.10;42.40;;;;;;5006812;28;20490;-60
2022/08/03 12:38:27;;;;;;;8.77;2.20;;;32.10;42.40;;;;;;5017734;28;20458;-60
2022/08/03 12:40:57;;;;;;;10.15;2.30;;;32.00;42.60;;;;;;5010108;28;20033;-60
2022/08/03 12:43:24;;;;;;;7.50;2.42;;;32.00;42.80;;;;;;5012327;28;20026;-61
2022/08/03 12:45:49;;;;;;;10.48;2.30;;;31.90;43.00;;;;;;5015435;28;20057;-60
2022/08/03 12:48:15;;;;;;;9.10;2.33;;;31.90;42.90;;;;;;5029148;28;20037;-60
2022/08/03 12:50:41;;;;;;;7.80;1.80;;;31.80;42.70;;;;;;5017995;28;20033;-60
2022/08/03 12:53:08;;;;;;;9.68;2.05;;;31.70;42.70;;;;;;5024447;28;20096;-64
2022/08/03 12:55:35;;;;;;;9.23;2.00;;;31.70;42.70;;;;;;5010526;28;20022;-64
2022/08/03 12:58:06;;;;;;;10.13;2.15;;;31.70;42.70;;;;;;5021494;28;20034;-64